EST,Max TemperatureF,Mean TemperatureF,Min TemperatureF,Max Dew PointF,MeanDew PointF,Min DewpointF,Max Humidity, Mean Humidity, Min Humidity, Max Sea Level PressureIn, Mean Sea Level PressureIn, Min Sea Level PressureIn, Max VisibilityMiles, Mean VisibilityMiles, Min VisibilityMiles, Max Wind SpeedMPH, Mean Wind SpeedMPH, Max Gust SpeedMPH,PrecipitationIn, CloudCover, Events, WindDirDegrees
2014-2-1,80,70,59,68,63,57,100,84,67,30.16,30.11,30.06,10,5,0,14,3,18,0.01,7,Fog-Rain,156
2014-2-2,85,75,65,70,66,59,97,70,43,30.17,30.13,30.06,10,6,0,14,5,18,0.20,5,Fog,153
2014-2-3,86,74,62,68,63,60,93,69,44,30.14,30.08,30.02,10,6,0,16,3,21,0.00,4,Fog,198
2014-2-4,87,77,66,68,65,62,93,70,46,30.14,30.09,30.03,10,7,0,14,6,18,0.01,4,Fog-Rain,146
2014-2-5,86,77,67,70,68,65,90,71,51,30.09,30.05,29.98,10,10,10,17,8,22,0.00,5,,215
2014-2-6,72,62,51,67,56,46,90,77,63,30.20,30.12,30.04,10,10,6,20,11,24,0.13,7,Rain,4
2014-2-7,60,56,51,56,53,46,93,88,83,30.21,30.17,30.13,10,4,0,17,9,21,0.03,8,Rain,357
2014-2-8,61,59,56,57,55,53,93,90,86,30.17,30.12,30.08,10,4,0,18,7,22,0.34,8,Rain,3
2014-2-9,74,64,53,53,50,44,93,64,35,30.15,30.10,30.05,10,10,10,14,7,18,0.00,3,,360
2014-2-10,76,64,51,52,48,43,83,57,31,30.14,30.09,30.05,10,10,10,10,4,14,0.00,0,,8
2014-2-11,82,67,52,58,54,48,96,69,42,30.09,30.05,29.99,10,10,8,17,6,30,0.00,4,,67
2014-2-12,80,70,60,61,59,57,100,75,49,30.06,29.91,29.71,10,7,0,28,9,38,0.72,7,Fog-Rain-Thunderstorm,281
2014-2-13,64,55,45,63,50,39,93,70,47,30.01,29.81,29.70,10,10,5,28,15,38,0.03,4,Rain,264
2014-2-14,66,52,37,44,36,28,96,62,28,30.10,30.02,29.97,10,10,10,13,4,17,0.00,0,Fog,250
2014-2-15,72,60,47,55,40,20,93,54,14,30.17,30.02,29.93,10,10,10,22,11,28,T,2,,267
2014-2-16,72,56,39,43,36,18,89,51,13,30.23,30.17,30.14,10,10,10,14,4,20,0.00,0,,345
2014-2-17,77,60,42,47,39,28,86,52,18,30.27,30.21,30.17,10,10,10,9,2,28,0.00,1,Fog,121
2014-2-18,81,65,48,61,48,41,87,56,25,30.25,30.21,30.16,10,10,10,16,3,18,0.00,2,,125
2014-2-19,83,69,55,62,58,53,97,67,37,30.21,30.15,30.08,10,10,10,13,5,25,0.00,1,Fog,170
2014-2-20,86,71,55,65,60,53,100,70,40,30.19,30.13,30.08,10,9,4,18,8,23,0.00,1,Fog,146
2014-2-21,83,74,65,72,66,63,100,79,58,30.09,30.05,30.00,10,8,1,22,7,29,0.12,6,Fog-Rain,170
2014-2-22,79,72,64,70,66,61,100,86,71,30.12,30.07,30.03,10,7,1,20,6,24,0.08,7,Rain-Thunderstorm,207
2014-2-23,87,76,64,67,64,60,100,72,44,30.10,30.07,29.98,10,6,0,24,6,28,T,7,Fog,224
2014-2-24,77,71,64,64,62,59,93,74,55,30.09,30.04,29.98,10,10,8,12,6,,0.00,6,Fog,350
2014-2-25,81,70,59,61,58,55,90,66,42,30.07,30.01,29.95,10,10,10,14,5,19,0.00,4,,329
2014-2-26,77,67,56,65,60,54,93,73,53,29.97,29.83,29.72,10,8,1,20,4,27,0.41,7,Fog-Rain,295
2014-2-27,65,59,53,62,51,41,93,72,51,29.97,29.90,29.79,10,9,3,21,7,26,0.04,8,Rain,328
2014-2-28,72,60,48,50,43,38,80,55,29,30.13,30.04,29.97,10,10,10,15,8,20,0.00,2,,1